Airport View

Enter AWOS ICAO identifier for current METAR.

ex. KFNL

KM25 181235Z AUTO 05004KT 10SM CLR 00/M01 A3023 RMK AO2

18 Dec 2018 12:44

Frequency: 120.625

Phone: 270-247-2094

Other Area AWOS: KCEY - KPAH - KM30 - KPHT

TAF KPAH 181120Z 1812/1912 VRB03KT P6SM SCT250 FM181500 10004KT P6SM BKN250